Time;durP1;ratioP1;P1;durP2;ratioP2;P2;SDS_P1;SDS_P2;PMS_P1;PMS_P2;Temp;Humidity;BMP_temperature;BMP_pressure;BME280_temperature;BME280_humidity;BME280_pressure;Samples;Min_cycle;Max_cycle;Signal;HPM_P1;HPM_P2
2022/03/10 00:02:13;;;;;;;33.20;16.17;;;;;;;5.41;49.54;102222.38;5061671;28;20024;-83
2022/03/10 00:04:38;;;;;;;38.38;15.90;;;;;;;5.39;49.79;102224.09;5060742;28;20067;-83
2022/03/10 00:07:04;;;;;;;37.08;17.88;;;;;;;5.42;50.11;102231.97;5062271;28;20097;-83
2022/03/10 00:09:33;;;;;;;42.28;18.77;;;;;;;5.41;51.44;102227.63;5060276;28;20032;-83
2022/03/10 00:12:00;;;;;;;37.70;17.85;;;;;;;5.42;50.12;102233.72;5061199;28;20062;-83
2022/03/10 00:14:26;;;;;;;40.83;20.05;;;;;;;5.31;52.26;102236.28;5060514;28;20116;-83
2022/03/10 00:16:52;;;;;;;34.20;17.48;;;;;;;5.24;51.58;102237.16;5061865;28;20036;-83
2022/03/10 00:19:17;;;;;;;32.13;16.83;;;;;;;5.23;50.85;102232.78;5062073;28;20464;-83
2022/03/10 00:21:43;;;;;;;37.22;17.48;;;;;;;5.19;51.79;102238.88;5061601;28;20059;-83
2022/03/10 00:24:09;;;;;;;37.35;18.25;;;;;;;5.07;52.43;102232.69;5059256;28;20119;-83
2022/03/10 00:26:36;;;;;;;38.13;17.10;;;;;;;5.04;51.56;102234.44;5062390;28;20036;-83
2022/03/10 00:29:01;;;;;;;36.35;18.08;;;;;;;5.01;52.27;102237.03;5060118;28;20476;-83
2022/03/10 00:31:27;;;;;;;35.30;16.20;;;;;;;5.00;51.09;102230.06;5061992;28;20121;-83
2022/03/10 00:33:52;;;;;;;36.17;18.23;;;;;;;4.92;51.11;102226.50;5059049;28;20090;-83
2022/03/10 00:36:17;;;;;;;36.15;17.80;;;;;;;4.78;51.85;102221.19;5060137;28;20103;-82
2022/03/10 00:38:43;;;;;;;38.13;18.15;;;;;;;4.81;51.36;102231.69;5060449;28;20472;-83
2022/03/10 00:41:09;;;;;;;35.10;17.95;;;;;;;4.84;52.51;102242.19;5061535;28;20114;-83
2022/03/10 00:43:35;;;;;;;37.13;18.83;;;;;;;4.81;53.44;102240.44;5060453;28;20496;-83
2022/03/10 00:46:00;;;;;;;37.72;18.63;;;;;;;4.75;52.87;102236.88;5060941;28;20078;-83
2022/03/10 00:48:25;;;;;;;37.97;18.05;;;;;;;4.64;52.66;102236.81;5061199;28;20024;-83
2022/03/10 00:50:51;;;;;;;40.97;19.38;;;;;;;4.59;53.09;102233.28;5060528;28;20025;-83
2022/03/10 00:53:16;;;;;;;38.90;16.80;;;;;;;4.57;52.99;102240.28;5061258;28;20029;-83
2022/03/10 00:55:41;;;;;;;38.53;17.92;;;;;;;4.54;52.79;102238.50;5059793;28;20031;-83
2022/03/10 00:58:07;;;;;;;37.67;16.77;;;;;;;4.54;53.35;102245.47;5060077;28;20081;-82
2022/03/10 01:00:32;;;;;;;38.08;18.05;;;;;;;4.53;53.50;102249.84;5062273;28;20023;-83
2022/03/10 01:02:58;;;;;;;37.97;16.67;;;;;;;4.51;53.25;102250.69;5059663;28;20032;-83
2022/03/10 01:05:23;;;;;;;36.63;16.38;;;;;;;4.48;52.94;102248.06;5059171;28;20561;-83
2022/03/10 01:07:49;;;;;;;36.65;16.83;;;;;;;4.49;52.89;102252.44;5061207;28;20027;-83
2022/03/10 01:10:16;;;;;;;38.88;17.48;;;;;;;4.48;52.88;102250.69;5060517;28;20067;-83
2022/03/10 01:12:44;;;;;;;36.72;17.73;;;;;;;4.40;53.06;102248.00;5062570;28;20051;-83
2022/03/10 01:15:10;;;;;;;38.47;17.40;;;;;;;4.34;53.24;102251.44;5065348;28;20020;-83
2022/03/10 01:17:36;;;;;;;42.90;18.23;;;;;;;4.33;53.09;102257.53;5064326;28;20502;-83
2022/03/10 01:20:03;;;;;;;35.72;16.52;;;;;;;4.30;53.28;102246.19;5063863;28;20551;-83
2022/03/10 01:22:28;;;;;;;39.78;18.70;;;;;;;4.28;53.48;102247.88;5061869;28;20392;-83
2022/03/10 01:24:53;;;;;;;35.38;17.35;;;;;;;4.26;53.42;102247.88;5064421;28;20035;-83
2022/03/10 01:27:19;;;;;;;38.78;17.30;;;;;;;4.21;53.60;102244.34;5063317;28;20074;-83
2022/03/10 01:29:45;;;;;;;36.90;17.00;;;;;;;4.18;53.99;102246.94;5064007;28;20171;-83
2022/03/10 01:32:11;;;;;;;33.05;16.10;;;;;;;4.11;53.58;102234.66;5063721;28;20543;-83
2022/03/10 01:34:36;;;;;;;36.40;17.40;;;;;;;4.08;54.03;102240.75;5062614;28;20039;-83
2022/03/10 01:37:02;;;;;;;36.55;16.85;;;;;;;4.12;54.19;102235.53;5062537;28;20020;-83
2022/03/10 01:39:27;;;;;;;38.28;16.98;;;;;;;4.08;54.31;102237.25;5063745;28;20032;-83
2022/03/10 01:41:53;;;;;;;36.38;16.75;;;;;;;4.04;54.13;102238.94;5064076;28;20504;-83
2022/03/10 01:44:20;;;;;;;35.53;16.58;;;;;;;4.03;54.44;102241.56;5064098;28;20333;-83
2022/03/10 01:46:46;;;;;;;42.30;16.88;;;;;;;3.96;54.87;102231.88;5062700;28;20051;-83
2022/03/10 01:49:11;;;;;;;32.05;16.45;;;;;;;3.98;54.49;102245.88;5062305;28;20020;-83
2022/03/10 01:51:37;;;;;;;35.85;16.77;;;;;;;3.91;54.80;102225.75;5061305;28;20170;-83
2022/03/10 01:54:03;;;;;;;34.80;16.60;;;;;;;3.94;54.69;102234.50;5060526;28;20036;-83
2022/03/10 01:56:30;;;;;;;37.70;16.65;;;;;;;3.92;54.83;102231.00;5064069;28;20528;-83
2022/03/10 01:58:55;;;;;;;33.17;16.30;;;;;;;3.94;54.89;102234.50;5063054;28;20036;-83
2022/03/10 02:01:21;;;;;;;34.38;16.20;;;;;;;3.92;54.99;102238.84;5063409;28;20024;-83
2022/03/10 02:03:47;;;;;;;32.22;16.33;;;;;;;3.88;55.16;102230.97;5062700;28;20492;-83
2022/03/10 02:06:13;;;;;;;39.55;17.13;;;;;;;3.89;55.83;102227.47;5062821;28;20479;-83
2022/03/10 02:11:24;;;;;;;33.15;15.77;;;;;;;3.84;55.67;102230.06;5064764;28;20106;-83
2022/03/10 02:13:49;;;;;;;34.72;16.52;;;;;;;3.81;55.70;102224.78;5062922;28;20441;-83
2022/03/10 02:19:01;;;;;;;31.10;15.63;;;;;;;3.82;56.05;102226.53;5064164;28;20118;-83
2022/03/10 02:21:27;;;;;;;33.80;17.33;;;;;;;3.80;55.72;102229.13;5063052;28;20032;-82
2022/03/10 02:23:53;;;;;;;35.42;16.70;;;;;;;3.71;56.88;102226.44;5061264;28;20031;-83
2022/03/10 02:26:18;;;;;;;36.95;17.60;;;;;;;3.69;56.51;102229.91;5062732;28;20078;-83
2022/03/10 02:28:44;;;;;;;32.28;16.50;;;;;;;3.65;56.36;102220.28;5062483;28;20035;-83
2022/03/10 02:31:10;;;;;;;36.58;16.67;;;;;;;3.67;56.28;102231.59;5063512;28;20028;-83
2022/03/10 02:33:36;;;;;;;38.00;17.80;;;;;;;3.66;57.14;102229.84;5060514;28;20036;-83
2022/03/10 02:36:02;;;;;;;35.08;15.95;;;;;;;3.65;57.14;102225.50;5062161;28;20032;-82
2022/03/10 02:38:27;;;;;;;38.83;17.77;;;;;;;3.60;56.98;102229.81;5061332;28;20036;-83
2022/03/10 02:40:53;;;;;;;34.47;15.82;;;;;;;3.58;57.12;102228.03;5062452;28;20483;-83
2022/03/10 02:43:20;;;;;;;33.10;16.15;;;;;;;3.53;57.22;102232.31;5060834;28;20538;-83
2022/03/10 02:45:46;;;;;;;40.08;17.63;;;;;;;3.49;57.39;102222.69;5062051;28;20544;-83
2022/03/10 02:48:15;;;;;;;31.27;15.45;;;;;;;3.44;57.48;102219.16;5061185;28;20055;-83
2022/03/10 02:50:42;;;;;;;35.28;16.77;;;;;;;3.39;57.69;102228.69;5062226;28;20949;-83
2022/03/10 02:53:07;;;;;;;32.90;15.43;;;;;;;3.32;58.05;102224.25;5061073;28;20036;-83
2022/03/10 02:55:32;;;;;;;33.72;16.35;;;;;;;3.35;58.07;102221.66;5061627;28;20035;-83
2022/03/10 02:57:58;;;;;;;33.20;16.38;;;;;;;3.35;57.93;102220.78;5060138;28;20047;-83
2022/03/10 03:00:23;;;;;;;39.55;16.30;;;;;;;3.32;58.00;102214.69;5061893;28;20041;-83
2022/03/10 03:02:48;;;;;;;33.35;16.00;;;;;;;3.28;58.24;102218.09;5059895;28;20043;-83
2022/03/10 03:05:14;;;;;;;33.33;15.98;;;;;;;3.28;58.56;102223.34;5061474;28;20052;-83
2022/03/10 03:07:40;;;;;;;33.88;15.85;;;;;;;3.29;58.13;102224.22;5061558;28;20032;-83
2022/03/10 03:10:07;;;;;;;36.17;17.48;;;;;;;3.28;58.52;102225.06;5061577;28;20784;-83
2022/03/10 03:12:33;;;;;;;35.83;15.90;;;;;;;3.19;58.50;102219.75;5062846;28;20488;-83
2022/03/10 03:14:59;;;;;;;37.13;17.15;;;;;;;3.18;58.75;102223.22;5062801;28;20028;-83
2022/03/10 03:17:25;;;;;;;29.83;15.30;;;;;;;3.18;58.56;102213.63;5061453;28;20395;-83
2022/03/10 03:19:51;;;;;;;32.78;15.63;;;;;;;3.21;58.50;102225.84;5061858;28;20028;-83
2022/03/10 03:22:16;;;;;;;39.22;15.93;;;;;;;3.21;58.64;102229.34;5061807;28;20032;-82
2022/03/10 03:24:42;;;;;;;30.05;14.95;;;;;;;3.19;58.76;102230.19;5061257;28;20024;-83
2022/03/10 03:27:08;;;;;;;37.55;17.65;;;;;;;3.16;58.53;102233.63;5061743;28;20061;-83
2022/03/10 03:29:34;;;;;;;33.72;16.48;;;;;;;3.16;58.84;102241.47;5060955;28;20029;-82
2022/03/10 03:31:59;;;;;;;32.60;15.48;;;;;;;3.16;58.83;102243.19;5061901;28;20038;-83
2022/03/10 03:34:25;;;;;;;32.03;15.30;;;;;;;3.15;58.70;102241.47;5058678;28;20017;-83
2022/03/10 03:36:51;;;;;;;34.08;16.70;;;;;;;3.12;59.03;102244.03;5061287;28;20028;-83
2022/03/10 03:39:16;;;;;;;34.17;16.05;;;;;;;3.03;59.21;102248.28;5060979;28;20055;-83
2022/03/10 03:41:41;;;;;;;36.88;16.73;;;;;;;2.97;59.46;102236.84;5059515;28;20067;-83
2022/03/10 03:44:08;;;;;;;34.67;15.88;;;;;;;2.87;59.35;102241.09;5061780;28;20047;-83
2022/03/10 03:46:34;;;;;;;32.58;16.75;;;;;;;2.72;60.11;102243.47;5061430;28;20481;-83
2022/03/10 03:48:59;;;;;;;33.63;16.23;;;;;;;2.57;60.57;102241.53;5060253;28;20028;-83
2022/03/10 03:51:25;;;;;;;38.30;16.10;;;;;;;2.47;60.88;102250.03;5061512;28;20422;-83
2022/03/10 03:53:50;;;;;;;39.88;16.02;;;;;;;2.42;61.29;102241.25;5061603;28;20024;-83
2022/03/10 03:56:15;;;;;;;35.35;17.52;;;;;;;2.39;61.30;102246.47;5061755;28;20029;-83
2022/03/10 03:58:41;;;;;;;35.15;16.23;;;;;;;2.37;61.33;102251.63;5060257;28;20036;-83
2022/03/10 04:01:06;;;;;;;34.08;16.83;;;;;;;2.27;61.59;102252.34;5060152;28;20024;-83
2022/03/10 04:03:32;;;;;;;32.17;15.95;;;;;;;2.25;61.57;102259.28;5060175;28;20025;-83
2022/03/10 04:05:58;;;;;;;31.17;17.02;;;;;;;2.13;61.41;102257.31;5062591;28;20029;-82
2022/03/10 04:08:24;;;;;;;32.80;14.82;;;;;;;2.08;62.28;102263.31;5060653;28;20040;-83
2022/03/10 04:10:51;;;;;;;36.53;15.38;;;;;;;2.11;62.58;102266.00;5061278;28;20029;-83
2022/03/10 04:13:16;;;;;;;30.10;14.93;;;;;;;2.08;62.09;102264.19;5060107;28;20239;-83
2022/03/10 04:15:42;;;;;;;32.15;15.65;;;;;;;2.07;62.27;102265.06;5060041;28;20230;-83
2022/03/10 04:18:07;;;;;;;33.30;16.23;;;;;;;2.05;62.54;102261.53;5061837;28;20471;-83
2022/03/10 04:20:32;;;;;;;33.97;16.35;;;;;;;2.14;62.14;102261.69;5060535;28;20054;-83
2022/03/10 04:22:58;;;;;;;35.20;16.60;;;;;;;2.22;61.93;102262.69;5060960;28;20028;-83
2022/03/10 04:25:23;;;;;;;34.45;16.52;;;;;;;2.29;62.02;102268.91;5061674;28;20039;-83
2022/03/10 04:27:50;;;;;;;34.03;16.25;;;;;;;2.22;61.95;102256.59;5059931;28;20041;-83
2022/03/10 04:30:17;;;;;;;33.35;15.27;;;;;;;2.18;61.66;102255.66;5061387;28;20017;-83
2022/03/10 04:32:44;;;;;;;34.53;15.77;;;;;;;2.23;61.96;102266.19;5060647;28;20048;-83
2022/03/10 04:35:12;;;;;;;35.20;15.40;;;;;;;2.14;61.66;102260.81;5061410;28;20028;-83
2022/03/10 04:37:37;;;;;;;33.90;15.27;;;;;;;2.13;61.87;102270.38;5060575;28;20337;-83
2022/03/10 04:40:06;;;;;;;34.63;15.15;;;;;;;2.03;61.97;102265.84;5061776;28;20040;-83
2022/03/10 04:42:34;;;;;;;35.67;16.33;;;;;;;1.96;62.16;102274.44;5059675;28;20090;-83
2022/03/10 04:45:00;;;;;;;31.65;14.85;;;;;;;1.84;62.53;102267.25;5059531;28;20025;-83
2022/03/10 04:47:26;;;;;;;33.08;15.00;;;;;;;1.79;62.18;102261.06;5062979;28;20037;-83
2022/03/10 04:49:51;;;;;;;26.75;14.30;;;;;;;1.64;62.66;102255.56;5065226;28;20071;-83
2022/03/10 04:52:16;;;;;;;33.97;16.77;;;;;;;1.65;62.82;102259.94;5066327;28;20082;-83
2022/03/10 04:54:42;;;;;;;32.38;15.77;;;;;;;1.64;63.03;102258.19;5063636;28;20035;-83
2022/03/10 04:57:07;;;;;;;29.42;14.88;;;;;;;1.65;63.49;102255.59;5065241;28;20032;-83
2022/03/10 04:59:33;;;;;;;30.85;15.20;;;;;;;1.63;63.20;102256.38;5065202;28;20111;-83
2022/03/10 05:01:58;;;;;;;32.22;15.60;;;;;;;1.58;63.33;102252.81;5063795;28;20028;-83
2022/03/10 05:04:23;;;;;;;32.83;15.05;;;;;;;1.57;63.45;102253.69;5061789;28;20039;-83
2022/03/10 05:06:49;;;;;;;33.20;15.88;;;;;;;1.52;63.40;102264.88;5063013;28;20024;-83
2022/03/10 05:09:14;;;;;;;32.45;15.30;;;;;;;1.53;63.01;102260.53;5064054;28;20395;-83
2022/03/10 05:11:39;;;;;;;35.67;15.50;;;;;;;1.44;62.98;102274.28;5065829;28;20056;-83
2022/03/10 05:14:05;;;;;;;31.10;14.93;;;;;;;1.33;64.00;102273.19;5064037;28;20368;-83
2022/03/10 05:16:30;;;;;;;32.92;15.43;;;;;;;1.27;63.58;102275.66;5064874;28;20506;-83
2022/03/10 05:18:55;;;;;;;37.92;16.50;;;;;;;1.19;64.12;102279.84;5062107;28;20469;-83
2022/03/10 05:21:21;;;;;;;35.13;15.45;;;;;;;1.20;64.40;102279.84;5064623;28;20563;-83
2022/03/10 05:23:46;;;;;;;31.33;15.20;;;;;;;1.22;64.55;102277.31;5061741;28;20036;-83
2022/03/10 05:26:11;;;;;;;36.08;17.05;;;;;;;1.38;64.14;102275.88;5062683;28;20056;-83
2022/03/10 05:28:36;;;;;;;31.35;16.05;;;;;;;1.51;63.58;102267.47;5062927;28;20024;-83
2022/03/10 05:31:02;;;;;;;30.83;15.30;;;;;;;1.62;63.53;102267.69;5064917;28;20940;-83
2022/03/10 05:33:27;;;;;;;32.25;16.00;;;;;;;1.70;63.38;102266.97;5063384;28;20032;-83
2022/03/10 05:35:52;;;;;;;28.25;14.65;;;;;;;1.70;62.95;102272.19;5063909;28;20071;-83
2022/03/10 05:38:18;;;;;;;30.42;14.43;;;;;;;1.63;63.59;102277.25;5062370;28;20066;-83
2022/03/10 05:40:43;;;;;;;29.10;14.73;;;;;;;1.48;63.75;102277.81;5065617;28;20158;-83
2022/03/10 05:43:09;;;;;;;35.58;16.00;;;;;;;1.34;63.97;102277.53;5064497;28;20119;-83
2022/03/10 05:45:35;;;;;;;33.15;15.32;;;;;;;1.27;64.53;102283.50;5062797;28;20028;-83
2022/03/10 05:48:01;;;;;;;38.85;16.30;;;;;;;1.21;64.36;102273.81;5061921;28;20071;-83
2022/03/10 05:50:27;;;;;;;31.92;15.13;;;;;;;1.25;64.57;102274.75;5064988;28;20028;-83
2022/03/10 05:52:53;;;;;;;31.88;14.70;;;;;;;1.30;64.44;102275.72;5062912;28;20021;-83
2022/03/10 05:55:20;;;;;;;32.78;14.98;;;;;;;1.28;64.58;102272.22;5062646;28;20537;-83
2022/03/10 05:57:45;;;;;;;30.10;15.30;;;;;;;1.24;64.54;102276.47;5064562;28;20442;-83
2022/03/10 06:00:11;;;;;;;32.28;15.65;;;;;;;1.30;64.38;102280.91;5063094;28;20039;-83
2022/03/10 06:02:38;;;;;;;35.08;15.02;;;;;;;1.36;64.45;102270.66;5062348;28;20055;-82
2022/03/10 06:05:04;;;;;;;34.55;15.85;;;;;;;1.45;63.82;102275.19;5063481;28;20113;-83
2022/03/10 06:07:30;;;;;;;33.25;15.10;;;;;;;1.47;63.63;102263.03;5062515;28;20114;-82
2022/03/10 06:09:56;;;;;;;34.22;16.23;;;;;;;1.56;63.48;102271.03;5063396;28;20033;-83
2022/03/10 06:12:27;;;;;;;32.67;15.50;;;;;;;1.59;63.11;102270.25;5062459;28;20603;-83
2022/03/10 06:15:04;;;;;;;32.25;16.13;;;;;;;1.69;62.49;102272.19;5062667;28;20047;-83
2022/03/10 06:17:30;;;;;;;35.28;15.70;;;;;;;1.72;62.98;102272.22;5062885;28;20038;-83
2022/03/10 06:19:56;;;;;;;36.38;16.95;;;;;;;1.71;62.38;102270.47;5064709;28;20036;-83
2022/03/10 06:22:24;;;;;;;35.67;14.38;;;;;;;1.79;62.26;102261.94;5062091;28;20044;-83
2022/03/10 06:24:50;;;;;;;33.10;15.10;;;;;;;1.90;62.26;102276.91;5061873;28;20033;-83
2022/03/10 06:27:17;;;;;;;38.85;15.90;;;;;;;1.87;62.42;102272.53;5063004;28;20377;-83
2022/03/10 06:29:43;;;;;;;33.75;16.85;;;;;;;1.95;61.91;102277.84;5064031;28;20099;-83
2022/03/10 06:32:12;;;;;;;35.58;14.73;;;;;;;2.04;61.91;102281.50;5063541;28;20036;-83
2022/03/10 06:34:38;;;;;;;36.25;16.35;;;;;;;2.01;61.36;102267.56;5063629;28;20020;-83
2022/03/10 06:37:07;;;;;;;35.05;15.50;;;;;;;2.14;61.42;102286.91;5063004;28;20549;-83
2022/03/10 06:39:33;;;;;;;32.80;14.85;;;;;;;2.20;61.00;102285.28;5063244;28;20040;-83
2022/03/10 06:41:59;;;;;;;39.50;16.13;;;;;;;2.20;61.48;102285.28;5063996;28;20052;-83
2022/03/10 06:44:25;;;;;;;39.03;16.08;;;;;;;2.21;61.17;102279.22;5062858;28;20436;-83
2022/03/10 06:46:51;;;;;;;30.60;14.82;;;;;;;2.28;61.92;102293.22;5063809;28;20040;-83
2022/03/10 06:49:16;;;;;;;31.30;14.80;;;;;;;2.28;61.21;102288.91;5063443;28;20035;-83
2022/03/10 06:51:41;;;;;;;31.67;15.25;;;;;;;2.26;61.54;102284.50;5062700;28;20439;-83
2022/03/10 06:54:07;;;;;;;40.63;15.23;;;;;;;2.30;61.67;102296.75;5062934;28;20112;-83
2022/03/10 06:56:32;;;;;;;34.75;16.45;;;;;;;2.38;62.06;102295.16;5064025;28;20353;-83
2022/03/10 06:58:58;;;;;;;31.40;14.55;;;;;;;2.42;61.88;102293.47;5062161;28;20035;-83
2022/03/10 07:01:23;;;;;;;32.92;15.60;;;;;;;2.52;61.47;102301.50;5062023;28;20115;-83
2022/03/10 07:03:48;;;;;;;32.45;16.45;;;;;;;2.55;60.90;102298.91;5061949;28;20036;-82
2022/03/10 07:06:14;;;;;;;34.42;15.55;;;;;;;2.69;60.28;102303.47;5063397;28;20027;-83
2022/03/10 07:08:39;;;;;;;31.67;15.75;;;;;;;2.76;60.53;102298.38;5062028;28;20103;-82
2022/03/10 07:11:05;;;;;;;36.60;15.18;;;;;;;2.85;60.33;102302.00;5063615;28;20032;-82
2022/03/10 07:13:30;;;;;;;38.88;16.20;;;;;;;2.97;60.05;102317.84;5062607;28;20044;-83
2022/03/10 07:15:55;;;;;;;32.97;15.38;;;;;;;3.05;59.91;102311.88;5062053;28;20025;-82
2022/03/10 07:18:20;;;;;;;28.50;14.68;;;;;;;3.18;59.08;102310.31;5061542;28;20036;-82
2022/03/10 07:20:47;;;;;;;34.47;14.60;;;;;;;3.26;60.02;102310.41;5063292;28;20107;-82
2022/03/10 07:23:12;;;;;;;31.80;15.90;;;;;;;3.36;59.29;102303.56;5061457;28;20388;-82
2022/03/10 07:25:37;;;;;;;35.88;17.10;;;;;;;3.47;58.89;102302.00;5062240;28;20042;-82
2022/03/10 07:28:03;;;;;;;34.92;16.55;;;;;;;3.53;58.54;102297.69;5062417;28;20024;-82
2022/03/10 07:30:54;;;;;;;34.00;16.00;;;;;;;3.70;58.34;102310.13;5057452;28;20033;-82
2022/03/10 07:34:09;;;;;;;35.63;15.15;;;;;;;3.83;58.17;102312.88;5058280;28;20032;-82
2022/03/10 07:36:44;;;;;;;33.08;15.85;;;;;;;3.96;57.64;102305.16;5057546;28;20098;-82
2022/03/10 07:40:08;;;;;;;36.33;16.55;;;;;;;4.14;57.81;102312.31;5059204;28;20123;-81
2022/03/10 07:46:59;;;;;;;34.50;15.48;;;;;;;4.46;56.86;102307.38;4973498;28;20065;-82
2022/03/10 07:49:41;;;;;;;35.72;17.10;;;;;;;4.64;57.06;102304.06;4961045;28;20161;-82
2022/03/10 07:52:42;;;;;;;31.00;14.73;;;;;;;4.78;56.22;102297.16;4978214;28;20054;-82
2022/03/10 07:55:21;;;;;;;35.13;15.85;;;;;;;4.93;56.54;102292.03;4962498;28;20078;-82
2022/03/10 07:58:33;;;;;;;31.83;16.10;;;;;;;5.15;56.16;102300.03;4977548;28;20046;-82
2022/03/10 08:01:55;;;;;;;37.45;17.58;;;;;;;5.32;54.94;102295.75;4979459;28;20041;-82
2022/03/10 08:04:50;;;;;;;28.95;13.32;;;;;;;5.54;53.95;102297.59;4955785;28;20528;-82
2022/03/10 08:07:19;;;;;;;29.65;13.73;;;;;;;5.79;53.10;102288.06;4979480;28;20402;-82
2022/03/10 08:09:48;;;;;;;29.27;14.65;;;;;;;6.13;52.69;102293.41;4995627;28;20408;-82
2022/03/10 08:12:31;;;;;;;29.98;15.40;;;;;;;6.48;51.65;102290.84;5054931;28;20622;-82
2022/03/10 08:15:32;;;;;;;37.22;16.75;;;;;;;6.86;51.25;102301.31;5055030;28;20155;-82
2022/03/10 08:19:02;;;;;;;32.45;15.50;;;;;;;7.31;50.63;102302.06;5057498;28;20029;-83
2022/03/10 08:25:06;;;;;;;32.67;14.23;;;;;;;8.05;48.61;102299.97;5061774;28;20600;-82
2022/03/10 08:27:33;;;;;;;32.08;15.35;;;;;;;8.41;46.81;102301.50;5057889;28;20190;-82
2022/03/10 08:30:06;;;;;;;31.63;15.00;;;;;;;8.57;45.93;102299.63;5062318;28;20524;-83
2022/03/10 08:32:51;;;;;;;32.45;15.25;;;;;;;8.93;45.33;102308.97;5063462;28;20036;-82
2022/03/10 08:35:46;;;;;;;31.30;16.45;;;;;;;9.15;46.01;102298.19;5063738;28;20495;-83
2022/03/10 08:38:59;;;;;;;37.28;17.85;;;;;;;9.36;44.03;102300.56;5064660;28;20033;-83
2022/03/10 08:41:54;;;;;;;33.95;17.77;;;;;;;9.20;43.66;102280.53;5061281;28;20037;-82
2022/03/10 08:44:51;;;;;;;32.75;15.60;;;;;;;9.52;44.36;102281.94;4984851;28;20073;-83
2022/03/10 08:47:28;;;;;;;32.03;16.30;;;;;;;9.67;42.79;102274.69;4984921;28;20189;-83
2022/03/10 08:50:27;;;;;;;35.25;16.85;;;;;;;9.94;42.43;102273.41;4998721;28;20041;-83
2022/03/10 08:53:35;;;;;;;31.50;15.77;;;;;;;10.69;42.21;102285.47;4997695;28;20044;-84
2022/03/10 08:56:15;;;;;;;34.15;15.70;;;;;;;11.58;40.91;102283.75;4990635;28;20045;-84
2022/03/10 08:58:48;;;;;;;30.88;15.93;;;;;;;12.16;39.26;102287.75;5003984;28;20120;-84
2022/03/10 09:04:58;;;;;;;37.45;17.42;;;;;;;12.65;37.08;102283.91;5001236;28;20041;-83
2022/03/10 09:07:42;;;;;;;29.38;15.45;;;;;;;12.99;37.24;102280.38;5000011;28;20127;-83
2022/03/10 09:10:31;;;;;;;31.80;16.30;;;;;;;13.78;36.75;102270.13;4998391;28;20026;-84
2022/03/10 09:13:06;;;;;;;30.85;16.23;;;;;;;14.38;34.96;102275.34;4998551;28;20046;-83
2022/03/10 09:15:46;;;;;;;30.90;15.80;;;;;;;15.23;34.97;102272.34;4998556;28;20705;-83
2022/03/10 09:18:28;;;;;;;31.25;15.98;;;;;;;15.57;34.54;102273.75;4982130;28;20050;-83
2022/03/10 09:21:41;;;;;;;29.60;16.90;;;;;;;15.82;32.32;102271.94;5025135;28;20044;-83
2022/03/10 09:24:24;;;;;;;34.60;17.98;;;;;;;15.84;31.57;102261.19;5073757;28;20462;-83
2022/03/10 09:27:22;;;;;;;29.58;16.75;;;;;;;16.49;32.38;102257.63;5075907;28;20044;-83
2022/03/10 09:30:24;;;;;;;32.13;16.67;;;;;;;17.23;30.52;102257.97;5078729;28;20040;-84
2022/03/10 09:36:56;;;;;;;34.95;17.52;;;;;;;17.98;29.57;102253.59;5052608;28;20124;-83
2022/03/10 09:40:08;;;;;;;30.30;16.25;;;;;;;18.90;29.74;102239.13;5069909;28;20543;-84
2022/03/10 09:43:16;;;;;;;28.65;16.65;;;;;;;19.25;29.04;102239.03;4978330;28;20529;-84
2022/03/10 09:46:25;;;;;;;31.15;16.65;;;;;;;19.07;29.52;102243.56;4959943;28;20045;-83
2022/03/10 09:49:45;;;;;;;34.13;17.20;;;;;;;20.29;28.30;102247.50;4961279;28;20034;-83
2022/03/10 09:53:30;;;;;;;29.48;16.52;;;;;;;21.62;25.62;102241.16;4957501;28;20711;-83
2022/03/10 09:59:47;;;;;;;35.03;17.42;;;;;;;22.48;24.63;102240.91;4906465;29;20035;-84
2022/03/10 10:06:13;;;;;;;32.65;17.63;;;;;;;21.56;24.79;102228.09;4930393;29;20072;-84
2022/03/10 10:09:04;;;;;;;31.38;17.67;;;;;;;22.00;23.84;102229.69;4969900;28;20077;-84
2022/03/10 10:11:39;;;;;;;34.20;17.55;;;;;;;22.36;23.89;102215.63;4967410;28;20034;-83
2022/03/10 10:20:57;;;;;;;29.58;15.73;;;;;;;23.77;21.57;102232.66;4969764;28;20155;-84
2022/03/10 10:23:49;;;;;;;29.00;16.95;;;;;;;24.15;22.43;102219.88;4967310;28;20576;-84
2022/03/10 10:26:48;;;;;;;28.13;16.90;;;;;;;24.66;21.97;102214.13;4965203;28;20327;-82
2022/03/10 10:30:12;;;;;;;29.85;17.50;;;;;;;24.80;21.42;102213.06;4969108;28;20038;-83
2022/03/10 10:33:30;;;;;;;28.92;17.80;;;;;;;25.45;21.62;102206.94;4960337;28;20042;-83
2022/03/10 10:36:17;;;;;;;30.10;16.85;;;;;;;25.39;21.71;102215.56;4943837;28;20581;-84
2022/03/10 10:39:22;;;;;;;35.58;18.45;;;;;;;25.05;21.05;102217.41;4945235;28;20073;-84
2022/03/10 10:42:28;;;;;;;32.80;18.70;;;;;;;24.87;21.98;102217.00;4944931;28;20038;-84
2022/03/10 10:45:39;;;;;;;30.83;18.65;;;;;;;24.97;21.23;102219.00;4942868;28;20403;-84
2022/03/10 10:48:53;;;;;;;29.10;18.80;;;;;;;25.02;21.87;102211.38;4967530;28;20041;-84
2022/03/10 10:51:59;;;;;;;31.73;17.15;;;;;;;25.34;21.04;102203.41;4979438;28;20532;-83
2022/03/10 10:54:59;;;;;;;28.13;16.67;;;;;;;25.90;20.14;102198.75;4977718;28;20034;-83
2022/03/10 10:57:46;;;;;;;28.55;18.52;;;;;;;26.85;18.43;102195.19;4979372;28;20045;-84
2022/03/10 11:00:29;;;;;;;29.23;18.60;;;;;;;26.44;20.41;102199.66;4967721;28;20037;-84
2022/03/10 11:06:41;;;;;;;30.35;19.30;;;;;;;25.35;19.69;102192.44;5000095;28;20567;-83
2022/03/10 11:12:47;;;;;;;30.90;18.95;;;;;;;25.07;21.60;102190.22;4998997;28;20048;-84
2022/03/10 11:15:34;;;;;;;30.92;18.75;;;;;;;24.11;21.35;102193.19;4962171;28;20042;-84
2022/03/10 11:18:37;;;;;;;32.80;17.95;;;;;;;23.22;22.82;102185.34;4962510;28;20482;-83
2022/03/10 11:25:08;;;;;;;27.15;17.08;;;;;;;23.30;22.03;102193.78;5007335;28;20136;-83
2022/03/10 11:27:51;;;;;;;25.83;17.98;;;;;;;22.89;23.32;102178.72;5047726;28;20049;-83
2022/03/10 11:31:06;;;;;;;25.00;16.98;;;;;;;23.32;22.21;102178.34;5043713;28;20070;-83
2022/03/10 11:34:11;;;;;;;29.83;17.13;;;;;;;23.68;23.05;102185.59;5045132;28;20067;-83
2022/03/10 11:37:18;;;;;;;31.08;17.80;;;;;;;23.67;23.05;102173.06;5037718;28;20087;-83
2022/03/10 11:40:21;;;;;;;30.80;18.38;;;;;;;24.26;23.44;102164.97;5083614;27;20028;-84
2022/03/10 11:43:14;;;;;;;29.98;17.75;;;;;;;23.85;22.56;102168.13;5065276;28;20040;-84
2022/03/10 11:45:52;;;;;;;25.35;17.25;;;;;;;23.86;24.81;102148.25;5063079;28;20228;-84
2022/03/10 11:48:37;;;;;;;26.25;17.02;;;;;;;23.16;23.86;102157.00;5067875;28;20431;-84
2022/03/10 11:54:41;;;;;;;24.92;16.48;;;;;;;23.05;25.07;102152.38;5069538;28;20039;-83
2022/03/10 11:58:22;;;;;;;25.70;17.27;;;;;;;22.43;25.29;102149.59;5068738;28;20035;-83
2022/03/10 12:05:02;;;;;;;25.20;15.68;;;;;;;21.79;26.78;102129.69;4893068;29;20087;-84
2022/03/10 12:07:55;;;;;;;24.20;15.30;;;;;;;22.25;26.59;102129.28;4905712;29;20679;-84
2022/03/10 12:11:12;;;;;;;23.63;15.32;;;;;;;22.54;26.45;102121.88;5014388;28;20412;-83
2022/03/10 12:20:49;;;;;;;26.40;16.20;;;;;;;21.23;27.15;102123.50;5014454;28;20075;-83
2022/03/10 12:24:20;;;;;;;23.90;15.20;;;;;;;20.86;27.21;102115.09;5015336;28;20041;-83
2022/03/10 12:27:06;;;;;;;26.30;16.15;;;;;;;21.21;27.27;102106.56;4999948;28;20053;-83
2022/03/10 12:30:02;;;;;;;22.77;15.32;;;;;;;21.43;27.40;102098.88;4997387;28;20140;-84
2022/03/10 12:40:00;;;;;;;22.73;15.25;;;;;;;21.45;27.17;102082.59;4973519;28;20035;-83
2022/03/10 12:43:11;;;;;;;25.33;15.23;;;;;;;21.26;26.03;102081.09;4969819;28;20561;-83
2022/03/10 12:46:11;;;;;;;26.92;16.90;;;;;;;20.80;28.03;102069.78;4958316;28;20336;-83
2022/03/10 12:49:50;;;;;;;27.00;15.85;;;;;;;20.75;27.80;102082.63;4962928;28;20030;-83
2022/03/10 12:52:40;;;;;;;24.52;14.85;;;;;;;20.44;28.03;102080.97;4962095;28;20450;-83
2022/03/10 12:55:39;;;;;;;24.80;16.33;;;;;;;20.14;26.99;102073.81;4962343;28;20043;-83
2022/03/10 12:58:57;;;;;;;25.35;16.65;;;;;;;20.21;28.57;102072.50;4942382;28;20039;-83
2022/03/10 13:01:47;;;;;;;24.40;14.80;;;;;;;19.85;27.47;102068.41;4931032;28;20050;-84